Terminal Aerodrome Forecast
Issued by NWS Atlanta, GA

Home | Current Version | Previous Version | Text Only | Print | Product List | Glossary On
Versions: 1 2 3 4 5 6 7 8 9 10 11 12 13 14 15 16 17 18 19 20 21 22 23 24 25 26 27 28 29 30 31 32
000
FTUS42 KFFC 301100 RRA
TAFAHN
TAF
KAHN 301143Z 3012/3112 VRB03KT P6SM SCT080 SCT250
     FM301600 14005KT P6SM SCT040 BKN060 PROB30 3021/3102 -TSRA
      BKN045CB
     FM310200 00000KT P6SM SCT050 SCT150 BKN250=

USA.gov is the U.S. government's official web portal to all federal, state and local government web resources and services.